Terminal Aerodrome Forecast
Issued by NWS

Home | Current Version | Previous Version | Text Only | Print | Product List | Glossary On
Versions: 1 2 3 4 5 6 7 8 9 10 11 12
000
FTUS45 KSLC 010525
TAFPVU
TAF
KPVU 010525Z 0106/0206 14008KT P6SM BKN140
     FM011600 16008KT P6SM FEW110 BKN140
     FM020300 14011G17KT P6SM SCT100 OVC140
      AMD LTD TO CLD VIS AND WIND=

USA.gov is the U.S. government's official web portal to all federal, state and local government web resources and services.